Track Кочетков Владимир Амурская обл.

Time Latitude Longitude Accuracy (66% radius in meters) Altitude (meters) Speed (km/hour) Bearing (degrees) Battery (%) GPS flag
04:21:57 43.170807 132.075956 6 68.199996948242 0 0 57 1 delete
04:21:45 43.170763 132.075884 6 74.400001525879 0.070000000298023 271.86767578125 57 1 delete
04:21:39 43.170767 132.075966 6 76.699996948242 0 0 57 1 delete
04:19:18 43.170752 132.076080 5.5 79.800003051758 0.17000000178814 115.26306152344 57 1 delete
04:19:03 43.170798 132.076059 8 79 0.11999999731779 108.83605957031 57 1 delete
04:18:45 43.170847 132.076012 7 79.099998474121 0.53999996185303 343.38317871094 57 1 delete
04:16:33 43.170789 132.076061 4 70.900001525879 0 0 57 1 delete
04:12:33 43.170813 132.076118 4.5 79.099998474121 0 29.696044921875 61 1 delete
04:12:03 43.170740 132.076067 6 74.900001525879 0.10999999940395 332.138671875 61 1 delete
04:11:54 43.170682 132.076122 6.5 75.300003051758 0.35999998450279 334.47875976562 61 1 delete
04:11:42 43.170615 132.076191 5.5 75.900001525879 0.78999996185303 159.29626464844 61 1 delete
04:10:57 43.170672 132.076141 6 79.400001525879 0.68000000715256 154.54467773438 61 1 delete
04:10:45 43.170729 132.076097 7 79.699996948242 0.11999999731779 161.21887207031 61 1 delete
04:09:33 43.170778 132.076103 8.5 70.900001525879 0.63999998569489 127.77648925781 61 1 delete
04:09:27 43.170800 132.076022 6.5 68.099998474121 0.83999997377396 96.800537109375 61 1 delete
04:09:15 43.170833 132.075978 7 67.300003051758 0.91999995708466 128.44116210938 61 1 delete
04:09:12 43.170876 132.075957 7 68.300003051758 1.2799999713898 168.52478027344 61 1 delete
04:09:09 43.170930 132.075969 7 67.800003051758 0.5799999833107 160.32348632812 61 1 delete
04:09:00 43.170988 132.075958 6.5 66.900001525879 0.78999996185303 133.26965332031 61 1 delete
04:08:54 43.171052 132.075900 5.5 68 1.289999961853 131.67663574219 61 1 delete
04:08:48 43.171077 132.075849 5 68.5 0.8299999833107 151.68823242188 61 1 delete
04:08:42 43.171140 132.075837 4.5 70.699996948242 0.66999995708466 158.57116699219 61 1 delete
04:08:36 43.171181 132.075789 5.5 70.699996948242 1.1200000047684 149.45251464844 61 1 delete
04:08:33 43.171234 132.075799 5.5 72.400001525879 1.039999961853 164.36096191406 61 1 delete
04:06:54 43.171289 132.075797 5.5 71.900001525879 0.079999998211861 266.68762207031 61 1 delete
04:03:45 43.171342 132.075794 4 73.199996948242 0.10999999940395 43.972778320312 61 1 delete
04:00:57 43.171383 132.075727 2.5 73 0.059999998658895 330.83129882812 61 1 delete
03:49:45 43.169627 132.076178 6.5 76.5 2.8299999237061 326.54663085938 64 1 delete
03:49:42 43.169535 132.076186 7 77.099998474121 2.6799998283386 356.1328125 64 1 delete
03:49:39 43.169455 132.076163 7 76.699996948242 3.0099999904633 336.82434082031 64 1 delete
03:49:36 43.169363 132.076175 7 79 2.6199998855591 354.49035644531 64 1 delete
03:49:33 43.169277 132.076170 7 79.099998474121 2.1599998474121 4.8175048828125 64 1 delete
03:49:30 43.169199 132.076166 7 79.400001525879 2 330.34790039062 64 1 delete
03:49:27 43.169127 132.076186 7.5 78.800003051758 1.3099999427795 348.33251953125 64 1 delete
03:49:21 43.169066 132.076207 7.5 80.099998474121 0.74000000953674 337.763671875 64 1 delete
03:49:18 43.169010 132.076197 7 80.099998474121 1.4800000190735 354.92980957031 64 1 delete
03:49:15 43.168948 132.076162 7 79.400001525879 1.8700000047684 16.594848632812 64 1 delete
03:49:12 43.168895 132.076149 6.5 79.5 1.3999999761581 348.74450683594 64 1 delete
03:49:03 43.168816 132.076122 7 80 0.42999997735023 353.92456054688 64 1 delete
03:48:57 43.168770 132.076092 7.5 80.199996948242 0.17000000178814 16.094970703125 64 1 delete
03:48:51 43.168734 132.076047 8 80.199996948242 0.78999996185303 12.568359375 64 1 delete
03:48:48 43.168687 132.076010 8 79.699996948242 2.0199999809265 357.18200683594 64 1 delete
03:48:45 43.168633 132.076000 8 78.900001525879 1.6299999952316 331.41906738281 64 1 delete
03:48:42 43.168578 132.076003 8 78.699996948242 1.5499999523163 32.305297851562 64 1 delete
03:48:39 43.168535 132.075926 8.5 77.300003051758 1.5999999046326 35.831909179688 64 1 delete
03:48:36 43.168472 132.075810 7 75.300003051758 4.1700000762939 65.203857421875 64 1 delete
03:48:33 43.168392 132.075660 7 76.400001525879 2.3299999237061 47.779541015625 64 1 delete
03:48:30 43.168339 132.075599 7 78 1.9299999475479 45.401000976562 64 1 delete
03:48:27 43.168276 132.075544 7 79.199996948242 1.1299999952316 50.861206054688 64 1 delete
03:48:24 43.168235 132.075504 7.5 79.199996948242 1.5899999141693 52.042236328125 64 1 delete